Flight Track Log - Related Links

Times and Time Zones

All times are in EDT time to prevent confusion due to time zone crossing. See the EJA922 flight status page for this flight to view local times or setup timezone preferences in your user account.

Time Position Orientation Groundspeed Altitude Reporting Facility
EDT Latitude Longitude Course Direction KTS MPH feet Rate Location/Type
Thu 03:50:50 PM 44.7344 -85.4608 264° West 250 288 3,200  Level Minneapolis Center
Thu 03:51:52 PM 44.7292 -85.3614 94° East 252 290 7,700 4,161 Climbing Minneapolis Center
Thu 03:52:54 PM 44.7550 -85.2922 62° Northeast 245 282 11,800 3,048 Climbing Minneapolis Center
Thu 03:53:56 PM 44.7703 -85.3900 282° West 265 305 14,000 2,129 Climbing Minneapolis Center
Thu 03:54:58 PM 44.7761 -85.5164 274° West 319 367 16,200 1,984 Climbing Minneapolis Center
Thu 03:56:00 PM 44.6877 -86.3063 264° West  Level FlightAware Approximate
Thu 03:56:00 PM 44.7825 -85.6536 274° West 346 398 18,100  Level Minneapolis Center
Thu 03:57:03 PM 44.7883 -85.7997 273° West 368 423 20,300 2,112 Climbing Minneapolis Center
Thu 03:58:05 PM 44.7947 -85.9433 274° West 371 427 22,500 2,129 Climbing Minneapolis Center
Thu 03:59:07 PM 44.8017 -86.0883 274° West 372 428 24,700 2,468 Climbing Minneapolis Center
Thu 04:00:09 PM 44.8083 -86.2697 273° West 383 441 27,600 2,516 Climbing Minneapolis Center
Thu 04:01:11 PM 44.8147 -86.4186 274° West 385 443 29,900 2,129 Climbing Minneapolis Center
Thu 04:02:13 PM 44.8200 -86.5697 273° West 386 444 32,000 1,008 Climbing Minneapolis Center
Thu 04:03:16 PM 44.8275 -86.7344 274° West 411 473 32,000  Level Minneapolis Center
Thu 04:04:18 PM 44.8322 -86.9406 272° West 465 535 32,000  Level Minneapolis Center
Thu 04:05:32 PM 44.8403 -87.1581 273° West 466 536 32,000  Level Minneapolis Center
Thu 04:06:34 PM 44.8456 -87.3417 272° West 470 541 32,000  Level Minneapolis Center
Thu 04:07:36 PM 44.8522 -87.5594 273° West 466 536 32,000  Level Minneapolis Center
Thu 04:08:39 PM 44.8567 -87.7375 272° West 459 528 32,000  Level Minneapolis Center
Thu 04:09:41 PM 44.8614 -87.9106 272° West 449 517 32,000  Level Minneapolis Center
Thu 04:10:43 PM 44.8653 -88.0825 272° West 441 507 32,000  Level Minneapolis Center
Thu 04:11:45 PM 44.8686 -88.2556 272° West 442 509 32,000  Level Minneapolis Center
Thu 04:12:47 PM 44.8722 -88.4428 272° West 447 514 32,000  Level Minneapolis Center
Thu 04:13:49 PM 44.8769 -88.6194 272° West 448 516 32,000  Level Minneapolis Center
Thu 04:14:51 PM 44.8794 -88.7958 271° West 449 517 32,000  Level Minneapolis Center
Thu 04:15:53 PM 44.8831 -89.0108 271° West 454 522 32,000  Level Minneapolis Center
Thu 04:16:55 PM 44.8867 -89.1886 272° West 453 521 32,000  Level Minneapolis Center
Thu 04:17:57 PM 44.8886 -89.3669 271° West 455 524 32,000  Level Minneapolis Center
Thu 04:19:00 PM 44.8914 -89.5475 271° West 459 528 32,000  Level Minneapolis Center
Thu 04:20:02 PM 44.8936 -89.7275 271° West 458 527 32,000  Level Minneapolis Center
Thu 04:21:04 PM 44.8967 -89.9069 271° West 458 527 32,000  Level Minneapolis Center
Thu 04:22:06 PM 44.9106 -90.0892 276° West 465 535 32,000  Level Minneapolis Center
Thu 04:23:08 PM 44.9269 -90.3061 276° West 464 534 32,000  Level Minneapolis Center
Thu 04:24:10 PM 44.9394 -90.4897 276° West 469 540 32,000  Level Minneapolis Center
Thu 04:25:12 PM 44.9514 -90.6725 275° West 468 539 32,000 -750 Level Minneapolis Center
Thu 04:26:26 PM 44.9642 -90.8569 276° West 473 544 30,300 -2,190 Descending Minneapolis Center
Thu 04:27:29 PM 44.9781 -91.0961 275° West 493 567 27,000 -2,784 Descending Minneapolis Center
Thu 04:28:31 PM 44.9908 -91.2856 276° West 491 565 24,500 -2,371 Descending Minneapolis Center
Thu 04:29:33 PM 45.0019 -91.4625 275° West 467 537 22,100 -2,516 Descending Minneapolis Center
Thu 04:30:35 PM 45.0128 -91.6656 274° West 444 511 19,300 -2,371 Descending Minneapolis Center
Thu 04:31:37 PM 45.0236 -91.8278 275° West 426 490 17,200 -2,032 Descending Minneapolis Center
Thu 04:32:39 PM 45.0328 -91.9856 275° West 404 465 15,100 -1,984 Descending Minneapolis Center
Thu 04:33:41 PM 45.0400 -92.1261 274° West 364 419 13,100 -1,721 Descending Minneapolis Center
Thu 04:34:55 PM 45.0481 -92.2639 275° West 355 409 11,200 -920 Descending Minneapolis Center
Thu 04:35:58 PM 45.0236 -92.4519 260° West 351 404 11,000 -96 Descending Minneapolis Center
Thu 04:37:00 PM 45.0019 -92.5869 257° West 353 406 11,000  Level Minneapolis Center
Thu 04:38:02 PM 44.9806 -92.7219 257° West 352 405 11,000 -387 Level Minneapolis Center
Thu 04:39:04 PM 44.9619 -92.8403 258° West 310 357 10,200 -1,161 Descending Minneapolis Center
Thu 04:40:06 PM 44.9450 -92.9428 257° West 274 315 8,600 -1,065 Descending Minneapolis Center
Thu 04:41:08 PM 44.9289 -93.0403 257° West 261 300 8,000 -339 Descending Minneapolis Center
Thu 04:42:10 PM 44.9639 -93.1417 296° West 250 288 7,900 -919 Descending Minneapolis Center
Thu 04:43:12 PM 45.0006 -93.2264 301° West 255 293 6,100 -1,742 Descending Minneapolis Center
Thu 04:44:14 PM 45.0469 -93.3003 312° West 253 291 4,300 -1,016 Descending Minneapolis Center
Thu 04:45:16 PM 45.0469 -93.3719 270° West 215 247 4,000 -339 Descending Minneapolis Center
Thu 04:46:18 PM 44.9953 -93.3419 158° South 208 239 3,600 -871 Descending Minneapolis Center
Thu 04:47:20 PM 44.9408 -93.2917 147° Southeast 197 227 2,200 -1,056 Descending Minneapolis Center
Thu 04:48:23 PM 44.9064 -93.2497 139° Southeast 161 185 1,400 -762 Descending Minneapolis Center
Thu 04:50:00 PM 44.8820 -93.2218 160° South  Level Estimated
Thu 04:57:00 PM 44.8820 -93.2218 160° South  Level Estimated

Login

Don't have an account? Register now (free) for customized features, flight alerts, and more!